Time;durP1;ratioP1;P1;durP2;ratioP2;P2;SDS_P1;SDS_P2;PMS_P1;PMS_P2;Temp;Humidity;BMP_temperature;BMP_pressure;BME280_temperature;BME280_humidity;BME280_pressure;Samples;Min_cycle;Max_cycle;Signal;HPM_P1;HPM_P2
2022/11/24 00:01:11;;;;;;;27.42;16.15;;;;;;;7.14;70.56;98670.16;7764990;32;38605;-83
2022/11/24 00:05:27;;;;;;;29.23;15.02;;;;;;;7.30;70.13;98676.31;7766343;32;37298;-83
2022/11/24 00:09:43;;;;;;;32.15;15.77;;;;;;;7.41;69.87;98676.28;7765897;32;39515;-83
2022/11/24 00:14:01;;;;;;;25.67;15.27;;;;;;;7.13;70.93;98684.78;7766070;32;39888;-83
2022/11/24 00:18:17;;;;;;;31.23;17.25;;;;;;;7.37;70.18;98686.88;7766064;32;37520;-83
2022/11/24 00:22:33;;;;;;;28.65;17.02;;;;;;;7.52;69.23;98681.38;7765928;32;37984;-83
2022/11/24 00:26:49;;;;;;;28.25;16.27;;;;;;;7.46;69.10;98682.50;7765994;32;39791;-83
2022/11/24 00:31:18;;;;;;;27.62;16.67;;;;;;;7.48;69.23;98693.88;7766056;32;40793;-83
2022/11/24 00:35:34;;;;;;;27.70;16.12;;;;;;;7.40;69.68;98694.47;7753143;32;38024;-83
2022/11/24 00:39:50;;;;;;;29.42;16.75;;;;;;;7.47;69.42;98684.13;7766031;32;37079;-83
2022/11/24 00:44:07;;;;;;;31.12;15.98;;;;;;;7.55;69.33;98698.19;7765731;32;40120;-82
2022/11/24 00:48:23;;;;;;;34.42;17.67;;;;;;;7.26;70.04;98706.97;7765850;32;39785;-83
2022/11/24 00:52:39;;;;;;;31.20;15.90;;;;;;;7.33;70.16;98712.94;7765251;32;37549;-83
2022/11/24 00:56:55;;;;;;;25.75;15.05;;;;;;;7.56;69.26;98716.91;7765517;32;36906;-83
2022/11/24 01:01:15;;;;;;;29.52;15.88;;;;;;;7.59;68.80;98723.66;7765171;32;39115;-83
2022/11/24 01:05:34;;;;;;;27.75;15.45;;;;;;;7.60;68.64;98728.81;7765657;32;40565;-83
2022/11/24 01:09:50;;;;;;;27.60;15.80;;;;;;;7.23;70.21;98723.81;7765293;32;37991;-83
2022/11/24 01:14:06;;;;;;;33.47;16.67;;;;;;;6.67;72.23;98725.50;7764904;32;38054;-83
2022/11/24 01:18:23;;;;;;;33.70;16.33;;;;;;;6.95;71.58;98734.97;7765365;32;39391;-83
2022/11/24 01:22:40;;;;;;;33.70;15.88;;;;;;;7.08;71.30;98728.16;7751239;32;39901;-85
2022/11/24 01:26:56;;;;;;;32.17;16.83;;;;;;;6.89;71.68;98736.06;7751580;32;37853;-84
2022/11/24 01:31:13;;;;;;;30.55;16.10;;;;;;;7.09;71.03;98735.22;7750914;32;37259;-83
2022/11/24 01:35:29;;;;;;;32.30;15.38;;;;;;;7.18;70.80;98738.19;7764922;32;40124;-83
2022/11/24 01:39:45;;;;;;;34.00;17.83;;;;;;;7.11;71.41;98737.66;7764666;32;39752;-83
2022/11/24 01:44:18;;;;;;;37.97;18.62;;;;;;;6.67;72.66;98747.19;7764918;32;37626;-83
2022/11/24 01:48:40;;;;;;;40.12;19.48;;;;;;;7.24;71.04;98741.69;7753147;32;38107;-83
2022/11/24 01:52:57;;;;;;;48.67;22.40;;;;;;;6.96;71.77;98746.62;7764990;32;38908;-83
2022/11/24 01:57:47;;;;;;;51.00;24.58;;;;;;;6.51;73.69;98748.28;7764821;32;40588;-83
2022/11/24 02:02:03;;;;;;;55.35;26.77;;;;;;;5.96;75.18;98759.56;7764915;32;39031;-83
2022/11/24 02:06:26;;;;;;;53.45;28.25;;;;;;;5.43;78.11;98769.59;7751039;32;38180;-83
2022/11/24 02:10:44;;;;;;;59.63;28.87;;;;;;;5.79;76.62;98759.75;7751202;32;39428;-83
2022/11/24 02:15:00;;;;;;;55.90;26.77;;;;;;;5.80;76.26;98774.91;7764541;32;39982;-83
2022/11/24 02:19:40;;;;;;;61.83;28.52;;;;;;;5.70;76.48;98768.66;7750677;32;37862;-83
2022/11/24 02:25:01;;;;;;;53.50;28.60;;;;;;;5.59;77.20;98771.31;7745612;32;153304;-83
2022/11/24 02:29:18;;;;;;;52.70;26.35;;;;;;;5.90;75.84;98766.03;7624269;32;39798;-83
2022/11/24 02:33:35;;;;;;;60.67;28.55;;;;;;;5.58;76.48;98772.38;7718360;32;40794;-83
2022/11/24 02:37:51;;;;;;;57.53;27.23;;;;;;;5.38;77.47;98781.22;7750315;32;38615;-84
2022/11/24 02:42:11;;;;;;;57.60;28.12;;;;;;;6.09;74.33;98773.66;7763958;32;38064;-83
2022/11/24 02:46:28;;;;;;;65.37;29.45;;;;;;;5.26;76.29;98781.41;7763734;32;39231;-83
2022/11/24 02:50:44;;;;;;;67.37;30.55;;;;;;;5.27;76.22;98782.22;7763559;32;39893;-83
2022/11/24 02:55:00;;;;;;;67.32;31.42;;;;;;;5.22;76.87;98780.28;7763286;32;37883;-82
2022/11/24 02:59:16;;;;;;;68.78;31.37;;;;;;;5.60;74.93;98772.91;7763542;32;38018;-83
2022/11/24 03:03:33;;;;;;;72.00;30.80;;;;;;;5.27;76.15;98777.62;7763520;32;39116;-83
2022/11/24 03:07:49;;;;;;;64.03;29.67;;;;;;;5.31;75.75;98782.50;7762906;32;40259;-83
2022/11/24 03:12:05;;;;;;;73.97;31.37;;;;;;;5.56;74.54;98779.94;7749200;32;38577;-83
2022/11/24 03:16:22;;;;;;;61.65;28.50;;;;;;;5.11;75.96;98777.81;7763184;32;37360;-83
2022/11/24 03:20:38;;;;;;;75.97;31.70;;;;;;;5.04;76.33;98781.56;7763014;32;40060;-83
2022/11/24 03:24:54;;;;;;;57.47;29.33;;;;;;;4.85;76.81;98791.94;7763123;32;40689;-83
2022/11/24 03:29:10;;;;;;;65.80;32.13;;;;;;;4.60;77.43;98789.03;7762705;32;38017;-84
2022/11/24 03:33:26;;;;;;;65.12;28.08;;;;;;;4.32;78.88;98801.75;7762666;32;38078;-83
2022/11/24 03:37:43;;;;;;;65.62;28.45;;;;;;;5.10;75.79;98787.00;7764781;32;39304;-83
2022/11/24 03:41:59;;;;;;;74.45;30.42;;;;;;;4.59;76.07;98799.03;7766762;32;37612;-83
2022/11/24 03:46:15;;;;;;;77.78;30.62;;;;;;;4.34;77.49;98802.31;7766447;32;37713;-83
2022/11/24 03:50:31;;;;;;;65.90;29.33;;;;;;;4.51;76.05;98794.09;7765902;32;37828;-83
2022/11/24 03:54:47;;;;;;;69.28;32.67;;;;;;;4.27;76.86;98815.19;7766791;32;40295;-84
2022/11/24 03:59:03;;;;;;;80.53;34.90;;;;;;;4.54;76.21;98815.19;7766548;32;38172;-83
2022/11/24 04:03:20;;;;;;;79.37;30.37;;;;;;;4.78;74.67;98815.66;7766148;32;38052;-84
2022/11/24 04:07:36;;;;;;;71.93;33.35;;;;;;;4.83;74.62;98821.09;7766052;32;36919;-83
2022/11/24 04:16:27;;;;;;;74.95;34.13;;;;;;;4.81;73.70;98822.41;7766077;32;40808;-84
2022/11/24 04:20:43;;;;;;;75.20;32.35;;;;;;;4.12;75.32;98837.41;7766145;32;35699;-83
2022/11/24 04:24:59;;;;;;;70.87;31.70;;;;;;;4.80;73.85;98832.41;7765948;32;37993;-83
2022/11/24 04:29:16;;;;;;;71.93;33.72;;;;;;;5.13;72.35;98841.31;7765934;32;39322;-83
2022/11/24 04:33:32;;;;;;;83.90;31.17;;;;;;;4.73;73.32;98853.41;7751775;32;39895;-83
2022/11/24 04:37:48;;;;;;;74.85;32.45;;;;;;;4.91;72.07;98851.41;7765271;32;38586;-83
2022/11/24 04:42:05;;;;;;;80.50;32.25;;;;;;;4.96;72.40;98856.84;7765687;32;37267;-83
2022/11/24 04:46:21;;;;;;;76.75;31.90;;;;;;;4.67;72.49;98865.22;7765730;32;40031;-83
2022/11/24 04:50:38;;;;;;;67.18;29.48;;;;;;;4.76;72.13;98869.12;7764749;32;39858;-82
2022/11/24 04:54:54;;;;;;;74.03;28.15;;;;;;;4.58;72.37;98870.28;7765516;32;38740;-83
2022/11/24 04:59:13;;;;;;;65.95;27.50;;;;;;;4.30;73.37;98882.13;7765643;32;37198;-83
2022/11/24 05:03:30;;;;;;;74.45;29.63;;;;;;;4.08;74.24;98891.03;7751816;32;40047;-83
2022/11/24 05:07:46;;;;;;;69.95;30.90;;;;;;;4.53;72.56;98889.13;7765120;32;39902;-84
2022/11/24 05:12:02;;;;;;;63.30;28.25;;;;;;;4.43;73.04;98887.16;7765225;32;38720;-80
2022/11/24 05:16:18;;;;;;;76.28;29.10;;;;;;;4.19;73.42;98901.97;7765258;32;37286;-81
2022/11/24 05:20:35;;;;;;;73.55;28.98;;;;;;;4.35;71.88;98909.19;7764846;32;39150;-80
2022/11/24 05:24:51;;;;;;;81.82;29.25;;;;;;;4.50;71.99;98920.16;7751359;32;39943;-80
2022/11/24 05:29:07;;;;;;;64.70;25.67;;;;;;;3.91;73.71;98923.47;7765162;32;37981;-81
2022/11/24 05:33:23;;;;;;;66.90;26.10;;;;;;;4.24;72.39;98915.50;7765133;32;37383;-80
2022/11/24 05:37:40;;;;;;;67.03;28.12;;;;;;;4.24;71.56;98929.00;7764486;32;40090;-81
2022/11/24 05:41:56;;;;;;;71.45;27.67;;;;;;;4.41;72.08;98927.06;7764836;32;39893;-81
2022/11/24 05:46:12;;;;;;;69.03;28.73;;;;;;;4.26;71.85;98932.25;7764971;32;38773;-82
2022/11/24 05:50:28;;;;;;;62.47;27.10;;;;;;;4.39;71.70;98934.59;7764667;32;37251;-81
2022/11/24 05:54:44;;;;;;;59.90;24.55;;;;;;;4.64;71.21;98946.72;7764795;32;40313;-83
2022/11/24 05:59:00;;;;;;;58.80;25.42;;;;;;;4.94;69.71;98950.84;7764735;32;39928;-81
2022/11/24 06:03:24;;;;;;;56.70;23.30;;;;;;;4.51;70.55;98959.56;7751755;32;38645;-85
2022/11/24 06:07:40;;;;;;;68.28;26.37;;;;;;;4.77;69.17;98972.53;7764656;32;37253;-86
2022/11/24 06:11:59;;;;;;;62.13;26.35;;;;;;;4.56;70.29;98966.09;7764204;32;39278;-86
2022/11/24 06:16:16;;;;;;;57.20;26.35;;;;;;;4.88;69.64;98967.00;7764453;32;40825;-86
2022/11/24 06:20:32;;;;;;;57.42;26.00;;;;;;;5.07;68.94;98953.09;7764359;32;38040;-86
2022/11/24 06:24:49;;;;;;;52.92;24.08;;;;;;;5.33;67.83;98964.97;7764428;32;38068;-86
2022/11/24 06:29:06;;;;;;;57.33;24.15;;;;;;;4.67;69.33;98973.22;7764183;32;39451;-86
2022/11/24 06:33:22;;;;;;;48.33;20.95;;;;;;;4.58;69.34;98975.56;7763857;32;39988;-86
2022/11/24 06:37:38;;;;;;;44.97;22.05;;;;;;;4.85;68.73;98983.69;7763845;32;38705;-84
2022/11/24 06:41:54;;;;;;;44.30;21.75;;;;;;;4.47;69.79;98996.22;7764299;32;34983;-84
2022/11/24 06:46:11;;;;;;;45.90;21.05;;;;;;;4.85;68.84;98991.81;7763962;32;40132;-84
2022/11/24 06:50:28;;;;;;;55.50;24.60;;;;;;;4.82;68.78;98997.72;7763315;32;40810;-90
2022/11/24 06:54:48;;;;;;;54.22;19.55;;;;;;;4.62;69.25;99002.87;7763531;32;37941;-80
2022/11/24 06:59:05;;;;;;;59.35;24.20;;;;;;;4.22;70.64;99010.19;7762465;32;38020;-87
2022/11/24 07:03:21;;;;;;;58.72;25.08;;;;;;;4.82;69.67;99018.50;7763351;32;39280;-88
2022/11/24 07:07:37;;;;;;;61.92;25.67;;;;;;;4.86;69.54;99028.56;7763214;32;39993;-87
2022/11/24 07:11:55;;;;;;;56.65;24.95;;;;;;;4.40;70.33;99038.78;7762264;32;37975;-87
2022/11/24 07:16:11;;;;;;;62.70;25.48;;;;;;;4.85;70.06;99051.22;7766283;32;37792;-86
2022/11/24 07:20:28;;;;;;;70.05;27.67;;;;;;;4.52;70.79;99052.16;7766556;32;40149;-83
2022/11/24 07:24:44;;;;;;;61.97;26.33;;;;;;;4.88;69.56;99064.22;7765526;32;39900;-85
2022/11/24 07:29:00;;;;;;;63.65;25.17;;;;;;;4.72;70.02;99057.00;7766418;32;38691;-83
2022/11/24 07:33:23;;;;;;;58.90;24.92;;;;;;;4.64;69.99;99055.56;7766558;32;36156;-81
2022/11/24 07:37:40;;;;;;;60.35;25.52;;;;;;;4.96;69.02;99068.34;7766406;32;40044;-81
2022/11/24 07:41:57;;;;;;;64.12;26.92;;;;;;;4.86;69.44;99074.47;7765957;32;40738;-85
2022/11/24 07:46:15;;;;;;;61.28;25.62;;;;;;;5.15;68.70;99071.53;7766384;32;37689;-83
2022/11/24 07:50:31;;;;;;;65.60;25.00;;;;;;;5.23;67.96;99081.91;7765929;32;37262;-72
2022/11/24 07:54:48;;;;;;;63.03;26.60;;;;;;;5.52;72.02;99080.81;7766315;32;39238;-84
2022/11/24 07:59:04;;;;;;;67.32;27.52;;;;;;;5.74;66.11;99076.16;7766743;32;40909;-86
2022/11/24 08:03:21;;;;;;;61.05;24.35;;;;;;;5.11;67.81;99083.94;7764958;32;36229;-86
2022/11/24 08:07:38;;;;;;;66.22;28.95;;;;;;;5.27;67.77;99090.31;7784564;32;37190;-87
2022/11/24 08:11:54;;;;;;;56.05;23.02;;;;;;;4.70;69.45;99094.25;7793563;32;38199;-85
2022/11/24 08:16:13;;;;;;;63.05;27.35;;;;;;;5.11;68.88;99102.84;7793272;32;40841;-84
2022/11/24 08:20:30;;;;;;;56.70;22.10;;;;;;;5.27;67.83;99112.75;7779492;32;38569;-84
2022/11/24 08:24:47;;;;;;;47.88;19.95;;;;;;;5.26;68.21;99121.94;7792248;32;37248;-84
2022/11/24 08:29:03;;;;;;;66.90;27.02;;;;;;;4.97;68.00;99123.22;7793236;32;40007;-85
2022/11/24 08:33:20;;;;;;;54.42;20.02;;;;;;;5.08;68.50;99141.19;7793051;32;40493;-85
2022/11/24 08:37:36;;;;;;;66.28;26.58;;;;;;;5.12;67.30;99127.97;7792695;32;37784;-84
2022/11/24 08:41:52;;;;;;;56.60;25.77;;;;;;;5.03;68.75;99133.00;7792655;32;37947;-84
2022/11/24 08:46:15;;;;;;;59.33;26.08;;;;;;;5.41;67.71;99147.50;7792924;32;40137;-86
2022/11/24 08:50:34;;;;;;;64.32;25.65;;;;;;;5.33;68.29;99142.53;7792911;32;40847;-86
2022/11/24 08:54:50;;;;;;;63.10;26.77;;;;;;;5.54;66.82;99154.41;7792697;32;37922;-86
2022/11/24 08:59:06;;;;;;;65.35;26.55;;;;;;;5.65;66.79;99146.13;7792739;32;37267;-83
2022/11/24 09:03:25;;;;;;;65.35;27.17;;;;;;;5.25;68.06;99150.03;7792766;32;39599;-85
2022/11/24 09:07:41;;;;;;;59.22;25.12;;;;;;;5.45;66.39;99151.34;7792640;32;41288;-89
2022/11/24 09:11:57;;;;;;;65.37;25.67;;;;;;;6.21;65.27;99147.75;7792447;32;38551;-88
2022/11/24 09:16:18;;;;;;;63.92;28.17;;;;;;;5.71;65.53;99154.28;7792423;32;37020;-86
2022/11/24 09:20:35;;;;;;;61.58;25.33;;;;;;;5.74;66.11;99149.19;7792492;32;40192;-87
2022/11/24 09:24:51;;;;;;;56.78;25.92;;;;;;;6.00;64.08;99152.16;7792686;32;38156;-86
2022/11/24 09:29:08;;;;;;;57.35;25.70;;;;;;;6.57;63.74;99145.28;7792324;32;37689;-87
2022/11/24 09:33:25;;;;;;;62.62;26.87;;;;;;;6.60;63.67;99150.19;7792041;32;36952;-87
2022/11/24 09:37:43;;;;;;;57.85;24.63;;;;;;;6.72;61.33;99153.50;7791937;32;39297;-85
2022/11/24 09:42:11;;;;;;;59.63;25.10;;;;;;;6.50;62.41;99152.81;7792155;32;39930;-75
2022/11/24 09:46:56;;;;;;;57.53;25.35;;;;;;;6.80;61.49;99145.97;7792152;32;37807;-82
2022/11/24 09:51:13;;;;;;;56.70;22.87;;;;;;;6.34;63.08;99149.19;7792144;32;37143;-88
2022/11/24 09:55:47;;;;;;;50.78;23.00;;;;;;;6.95;62.46;99146.87;7792038;32;39293;-87
2022/11/24 10:00:11;;;;;;;51.05;22.95;;;;;;;6.98;62.44;99147.41;7777880;32;39899;-87
2022/11/24 10:04:42;;;;;;;52.90;24.33;;;;;;;7.59;60.25;99138.66;7778382;32;37570;-89
2022/11/24 10:09:22;;;;;;;57.45;24.20;;;;;;;6.73;61.90;99144.31;7778541;32;38057;-89
2022/11/24 10:13:59;;;;;;;60.63;23.77;;;;;;;7.32;60.43;99140.50;7791606;32;40019;-88
2022/11/24 10:18:36;;;;;;;58.28;23.55;;;;;;;7.66;59.94;99133.81;7777676;32;39920;-89
2022/11/24 10:23:20;;;;;;;55.67;24.12;;;;;;;7.39;60.61;99140.25;7791470;32;37856;-90
2022/11/24 10:27:41;;;;;;;;;;;;;;;7.58;60.34;99134.34;7778214;32;37172;-89
2022/11/24 10:31:59;;;;;;;56.17;23.17;;;;;;;7.24;60.84;99134.78;7791644;32;39568;-90
2022/11/24 10:37:02;;;;;;;52.67;22.37;;;;;;;7.37;61.35;99138.91;7791026;32;39705;-92
2022/11/24 10:41:38;;;;;;;53.17;22.13;;;;;;;7.18;61.26;99136.66;7653121;32;37680;-89
2022/11/24 10:46:17;;;;;;;51.80;22.70;;;;;;;7.49;60.62;99143.00;7732297;32;37801;-88
2022/11/24 10:50:39;;;;;;;48.92;20.10;;;;;;;7.09;61.35;99149.91;7791061;32;40024;-91
2022/11/24 10:55:01;;;;;;;47.75;21.67;;;;;;;7.34;60.80;99142.94;7776977;32;40916;-89
2022/11/24 10:59:21;;;;;;;48.08;20.15;;;;;;;7.03;60.81;99153.66;7790687;32;37797;-90
2022/11/24 11:03:52;;;;;;;41.42;18.77;;;;;;;7.89;59.32;99155.00;7776725;32;36981;-87
2022/11/24 11:08:13;;;;;;;46.25;20.00;;;;;;;7.99;58.37;99161.56;7763197;32;40279;-87
2022/11/24 11:12:29;;;;;;;46.10;18.75;;;;;;;8.24;57.81;99150.72;7761313;32;39759;-88
2022/11/24 11:17:01;;;;;;;44.95;19.30;;;;;;;8.55;57.35;99147.97;7759777;32;37898;-91
2022/11/24 11:21:30;;;;;;;39.45;17.00;;;;;;;8.95;56.44;99131.84;7761815;32;38007;-90
2022/11/24 11:25:47;;;;;;;40.42;17.45;;;;;;;9.49;55.05;99141.16;7748067;32;39968;-90
2022/11/24 11:30:15;;;;;;;39.35;17.77;;;;;;;10.12;55.27;99143.16;7762404;32;40622;-92
2022/11/24 11:34:54;;;;;;;33.83;15.32;;;;;;;10.09;51.09;99144.56;7761233;32;38254;-89
2022/11/24 11:39:44;;;;;;;32.33;15.57;;;;;;;9.92;51.41;99139.50;7747573;32;37153;-89
2022/11/24 11:44:20;;;;;;;29.80;13.52;;;;;;;10.45;50.99;99132.56;7760312;32;40157;-91
2022/11/24 11:48:37;;;;;;;35.78;15.25;;;;;;;10.85;50.96;99133.28;7760336;32;40004;-91
2022/11/24 11:53:17;;;;;;;31.02;15.48;;;;;;;10.97;48.79;99146.47;7748700;32;38222;-90
2022/11/24 11:57:54;;;;;;;32.90;15.15;;;;;;;10.67;48.80;99151.97;7763633;32;37084;-91
2022/11/24 12:02:28;;;;;;;34.50;15.68;;;;;;;10.68;49.12;99150.06;7753461;32;40082;-91
2022/11/24 12:07:12;;;;;;;33.47;14.23;;;;;;;10.51;50.80;99145.84;7766492;32;39691;-92
2022/11/24 12:11:42;;;;;;;29.70;13.38;;;;;;;9.99;52.57;99160.97;7766272;32;37864;-90
2022/11/24 12:16:17;;;;;;;30.90;14.80;;;;;;;10.07;50.79;99162.28;7766092;32;37319;-92
2022/11/24 12:20:44;;;;;;;35.47;15.90;;;;;;;10.09;52.40;99166.34;7754419;32;40290;-91
2022/11/24 12:25:19;;;;;;;36.05;16.73;;;;;;;10.49;50.35;99158.97;7766182;32;40817;-93
2022/11/24 12:30:04;;;;;;;33.15;14.73;;;;;;;9.88;52.81;99170.31;7765895;32;38712;-90
2022/11/24 12:34:47;;;;;;;32.33;14.48;;;;;;;9.57;51.95;99175.91;7765571;32;37140;-90
2022/11/24 12:39:27;;;;;;;37.08;18.35;;;;;;;9.35;52.99;99177.13;7753379;32;39156;-92
2022/11/24 12:43:50;;;;;;;38.45;15.65;;;;;;;9.62;52.36;99175.88;7753848;32;39694;-91
2022/11/24 12:48:29;;;;;;;34.10;14.80;;;;;;;9.88;52.50;99176.59;7752483;32;37907;-92
2022/11/24 12:52:54;;;;;;;32.38;15.30;;;;;;;9.59;52.80;99181.91;7728289;32;37912;-92
2022/11/24 12:57:43;;;;;;;32.55;15.93;;;;;;;9.00;54.71;99187.03;7752756;32;39321;-91
2022/11/24 13:02:23;;;;;;;31.95;15.18;;;;;;;9.11;55.25;99189.72;7765603;32;38884;-91
2022/11/24 13:06:48;;;;;;;30.15;14.85;;;;;;;8.60;57.83;99190.63;7765593;32;37571;-90
2022/11/24 13:11:23;;;;;;;32.90;14.95;;;;;;;8.49;58.25;99189.84;7751090;32;38166;-91
2022/11/24 13:15:54;;;;;;;39.33;15.05;;;;;;;8.46;58.18;99199.31;7765472;32;40100;-91
2022/11/24 13:20:37;;;;;;;28.55;14.10;;;;;;;8.50;57.25;99206.94;7764525;32;41197;-89
2022/11/24 13:25:11;;;;;;;33.28;14.15;;;;;;;8.99;56.22;99199.00;7751865;32;38353;-91
2022/11/24 13:29:35;;;;;;;38.22;15.02;;;;;;;9.06;55.49;99200.63;7764924;32;37188;-90
2022/11/24 13:33:51;;;;;;;30.52;13.90;;;;;;;9.13;55.44;99187.53;7765316;32;39166;-90
2022/11/24 13:38:44;;;;;;;30.35;14.45;;;;;;;8.43;58.17;99209.91;7764854;32;39723;-89
2022/11/24 13:43:01;;;;;;;28.45;13.57;;;;;;;8.61;57.04;99209.37;7765045;32;38622;-84
2022/11/24 13:47:36;;;;;;;34.20;14.87;;;;;;;8.24;58.19;99229.47;7765070;32;37865;-89
2022/11/24 13:51:56;;;;;;;31.12;14.93;;;;;;;8.52;57.85;99226.50;7764965;32;39362;-89
2022/11/24 13:56:12;;;;;;;34.25;14.40;;;;;;;8.30;58.28;99241.13;7751323;32;39988;-89
2022/11/24 14:00:54;;;;;;;31.48;14.55;;;;;;;8.22;58.26;99256.03;7764607;32;38643;-88
2022/11/24 14:05:18;;;;;;;31.27;14.68;;;;;;;8.00;59.13;99253.59;7753578;32;37110;-91
2022/11/24 14:09:52;;;;;;;31.55;14.75;;;;;;;7.90;59.40;99267.94;7764866;32;39327;-89
2022/11/24 14:14:19;;;;;;;29.33;14.52;;;;;;;8.57;58.11;99265.38;7764837;32;40173;-89
2022/11/24 14:18:38;;;;;;;28.38;15.65;;;;;;;8.20;59.33;99260.13;7750804;32;37800;-90
2022/11/24 14:22:54;;;;;;;32.22;14.98;;;;;;;8.33;59.50;99270.47;7763132;32;37968;-88
2022/11/24 14:27:15;;;;;;;32.15;14.68;;;;;;;7.69;60.91;99264.34;7764411;32;41788;-89
2022/11/24 14:31:32;;;;;;;32.15;15.52;;;;;;;8.29;59.44;99274.78;7764429;32;39774;-88
2022/11/24 14:35:49;;;;;;;36.97;15.05;;;;;;;8.41;59.33;99269.91;7763872;32;38752;-89
2022/11/24 14:40:36;;;;;;;34.13;14.40;;;;;;;8.52;59.26;99268.09;7764072;32;37905;-88
2022/11/24 14:45:02;;;;;;;33.13;15.23;;;;;;;8.42;59.48;99265.31;7763969;32;39539;-89
2022/11/24 14:49:22;;;;;;;29.40;14.52;;;;;;;8.46;59.60;99274.59;7750513;32;40160;-88
2022/11/24 14:53:44;;;;;;;26.80;13.85;;;;;;;7.80;61.69;99286.88;7749782;32;37880;-88
2022/11/24 14:58:17;;;;;;;29.05;14.18;;;;;;;7.75;60.40;99278.72;7759279;32;37270;-88
2022/11/24 15:03:14;;;;;;;34.10;13.98;;;;;;;8.24;59.37;99281.06;7762536;32;40069;-87
2022/11/24 15:07:31;;;;;;;29.65;14.00;;;;;;;7.87;60.27;99287.47;7744484;32;40719;-88
2022/11/24 15:11:49;;;;;;;32.33;14.98;;;;;;;7.60;61.05;99297.66;7763016;32;37314;-88
2022/11/24 15:16:17;;;;;;;34.28;14.87;;;;;;;7.48;61.54;99300.56;7763185;32;37173;-88
2022/11/24 15:20:43;;;;;;;31.37;14.55;;;;;;;7.61;61.56;99315.56;7748823;32;40020;-88
2022/11/24 15:24:59;;;;;;;34.63;14.18;;;;;;;7.58;62.19;99306.06;7763030;32;39730;-89
2022/11/24 15:29:16;;;;;;;33.03;14.25;;;;;;;7.11;63.53;99320.44;7762113;32;37991;-88
2022/11/24 15:33:32;;;;;;;30.98;15.05;;;;;;;7.33;62.71;99323.03;7764664;32;38028;-89
2022/11/24 15:37:50;;;;;;;32.63;15.30;;;;;;;7.20;62.42;99321.56;7766186;32;39408;-89
2022/11/24 15:42:07;;;;;;;34.20;14.87;;;;;;;7.17;62.44;99343.78;7765934;32;39569;-87
2022/11/24 15:46:27;;;;;;;32.17;16.05;;;;;;;7.28;62.11;99341.97;7752682;32;38150;-89
2022/11/24 15:50:44;;;;;;;33.45;15.68;;;;;;;7.25;62.33;99342.47;7765772;32;37823;-88
2022/11/24 15:55:01;;;;;;;31.98;16.75;;;;;;;7.34;61.58;99340.91;7766243;32;39985;-88
2022/11/24 15:59:18;;;;;;;33.47;15.55;;;;;;;7.18;62.18;99350.03;7765473;32;39924;-89
2022/11/24 16:03:36;;;;;;;34.55;17.55;;;;;;;7.28;61.85;99355.53;7765920;32;38694;-88
2022/11/24 16:08:14;;;;;;;36.95;17.85;;;;;;;6.80;63.46;99354.59;7766127;32;37793;-88
2022/11/24 16:12:31;;;;;;;35.78;17.08;;;;;;;7.20;62.45;99356.81;7765502;32;39303;-88
2022/11/24 16:16:47;;;;;;;31.77;16.83;;;;;;;7.27;62.07;99362.81;7766052;32;39875;-87
2022/11/24 16:21:05;;;;;;;38.10;17.75;;;;;;;7.06;62.93;99364.56;7765153;32;37736;-88
2022/11/24 16:25:22;;;;;;;37.30;17.02;;;;;;;6.79;63.57;99366.50;7765680;32;38845;-88
2022/11/24 16:29:39;;;;;;;37.60;15.73;;;;;;;6.87;63.21;99366.84;7765634;32;39495;-89
2022/11/24 16:33:55;;;;;;;38.47;15.55;;;;;;;7.09;63.13;99380.31;7765412;32;39717;-89
2022/11/24 16:38:18;;;;;;;33.70;16.20;;;;;;;6.38;65.25;99378.56;7765061;32;37879;-89
2022/11/24 16:42:35;;;;;;;40.63;16.45;;;;;;;6.01;66.27;99392.75;7764814;32;37175;-88
2022/11/24 16:46:51;;;;;;;38.30;16.15;;;;;;;6.21;66.14;99396.78;7765028;32;39198;-87
2022/11/24 16:51:08;;;;;;;36.42;16.10;;;;;;;6.15;66.24;99398.59;7765030;32;39544;-86
2022/11/24 16:55:25;;;;;;;35.60;15.20;;;;;;;6.17;66.77;99395.62;7765157;32;37870;-89
2022/11/24 16:59:45;;;;;;;30.62;15.40;;;;;;;6.29;66.21;99403.62;7765200;32;37943;-88
2022/11/24 17:04:01;;;;;;;31.20;15.15;;;;;;;6.63;65.01;99398.06;7764894;32;39995;-89
2022/11/24 17:08:19;;;;;;;38.20;15.70;;;;;;;6.23;66.19;99410.88;7760609;32;39855;-88
2022/11/24 17:12:36;;;;;;;36.63;15.70;;;;;;;6.15;66.86;99416.72;7765037;32;37701;-89
2022/11/24 17:16:52;;;;;;;31.95;15.30;;;;;;;5.99;66.57;99421.13;7764563;32;37283;-88
2022/11/24 17:21:14;;;;;;;33.63;15.52;;;;;;;6.28;66.16;99421.78;7764510;32;39333;-89
2022/11/24 17:25:32;;;;;;;32.63;14.90;;;;;;;6.37;65.13;99422.94;7765241;32;40025;-88
2022/11/24 17:29:49;;;;;;;28.20;14.60;;;;;;;6.51;64.90;99428.00;7764366;32;37846;-86
2022/11/24 17:34:06;;;;;;;31.05;14.13;;;;;;;6.42;64.81;99429.53;7765103;32;37980;-89
2022/11/24 17:38:23;;;;;;;35.95;15.38;;;;;;;5.65;66.22;99449.03;7764346;32;37815;-88
2022/11/24 17:42:40;;;;;;;28.92;13.60;;;;;;;6.06;65.46;99446.13;7750874;32;39928;-86
2022/11/24 17:46:57;;;;;;;28.27;13.73;;;;;;;5.19;67.60;99456.44;7764770;32;37928;-90
2022/11/24 17:51:16;;;;;;;32.78;13.80;;;;;;;5.86;65.38;99454.72;7764464;32;37723;-89
2022/11/24 17:55:33;;;;;;;30.37;14.05;;;;;;;5.82;65.74;99448.19;7764628;32;39961;-89
2022/11/24 17:59:50;;;;;;;29.27;14.13;;;;;;;5.97;64.78;99451.16;7764161;32;39661;-89
2022/11/24 18:04:07;;;;;;;32.85;13.60;;;;;;;6.12;64.62;99453.25;7764701;32;37894;-89
2022/11/24 18:08:23;;;;;;;31.90;14.87;;;;;;;5.94;64.90;99467.03;7763754;32;37192;-89
2022/11/24 18:12:39;;;;;;;27.05;13.82;;;;;;;5.95;64.76;99464.09;7764449;32;39973;-88
2022/11/24 18:16:56;;;;;;;32.95;14.77;;;;;;;6.07;64.01;99471.28;7764324;32;39893;-88
2022/11/24 18:21:14;;;;;;;28.45;14.70;;;;;;;5.89;63.95;99486.72;7763818;32;37920;-88
2022/11/24 18:25:32;;;;;;;29.08;13.52;;;;;;;5.64;64.23;99493.38;7764433;32;36199;-88
2022/11/24 18:29:48;;;;;;;34.72;14.23;;;;;;;5.83;63.59;99501.25;7763554;32;40129;-89
2022/11/24 18:34:10;;;;;;;30.83;16.00;;;;;;;6.38;61.87;99499.56;7764144;32;39942;-88
2022/11/24 18:38:27;;;;;;;31.37;14.60;;;;;;;6.09;63.07;99501.62;7763113;32;38577;-88
2022/11/24 18:42:44;;;;;;;34.13;14.87;;;;;;;6.00;63.08;99509.34;7763391;32;37978;-87
2022/11/24 18:47:00;;;;;;;33.15;15.77;;;;;;;5.73;64.01;99514.63;7764067;32;37765;-87
2022/11/24 18:51:17;;;;;;;33.85;15.60;;;;;;;5.51;65.33;99507.22;7762370;32;40074;-87
2022/11/24 18:55:33;;;;;;;36.58;15.90;;;;;;;5.49;65.43;99517.47;7763660;32;38555;-85
2022/11/24 18:59:49;;;;;;;31.75;14.90;;;;;;;5.62;65.18;99524.44;7763803;32;36972;-84
2022/11/24 19:04:06;;;;;;;33.88;15.50;;;;;;;5.91;64.18;99533.28;7763611;32;40007;-86
2022/11/24 19:08:22;;;;;;;34.75;15.90;;;;;;;5.99;63.76;99543.72;7765184;32;40054;-86
2022/11/24 19:12:38;;;;;;;38.13;17.52;;;;;;;6.20;62.93;99530.47;7766535;32;38023;-87
2022/11/24 19:16:54;;;;;;;34.70;17.85;;;;;;;6.10;62.98;99539.28;7766510;32;37269;-86
2022/11/24 19:21:11;;;;;;;41.28;21.02;;;;;;;6.13;62.90;99541.47;7766515;32;40092;-84
2022/11/24 19:25:27;;;;;;;45.05;21.95;;;;;;;6.19;62.52;99545.91;7766409;32;41294;-86
2022/11/24 19:29:43;;;;;;;39.85;19.33;;;;;;;6.13;62.46;99551.50;7766389;32;37747;-87
2022/11/24 19:34:01;;;;;;;45.22;19.65;;;;;;;6.03;61.99;99560.28;7766294;32;38010;-86
2022/11/24 19:38:18;;;;;;;39.72;19.70;;;;;;;5.75;63.87;99572.00;7764807;32;39159;-84
2022/11/24 19:42:34;;;;;;;40.40;18.73;;;;;;;5.74;62.91;99581.16;7761255;32;40770;-85
2022/11/24 19:46:51;;;;;;;38.47;17.92;;;;;;;5.38;64.19;99584.06;7764679;32;38009;-87
2022/11/24 19:51:10;;;;;;;36.72;17.05;;;;;;;5.62;63.22;99573.09;7765223;32;37218;-85
2022/11/24 19:55:26;;;;;;;40.25;19.45;;;;;;;5.50;63.47;99581.28;7764185;32;39490;-85
2022/11/24 19:59:44;;;;;;;41.83;19.98;;;;;;;5.13;64.95;99586.28;7764897;32;40810;-86
2022/11/24 20:04:03;;;;;;;38.25;19.10;;;;;;;5.08;65.05;99595.13;7765022;32;37965;-86
2022/11/24 20:08:19;;;;;;;41.80;19.58;;;;;;;5.12;64.81;99592.75;7765161;32;37821;-84
2022/11/24 20:12:35;;;;;;;38.75;18.77;;;;;;;5.31;64.11;99596.09;7739313;32;41495;-87
2022/11/24 20:16:51;;;;;;;41.72;19.05;;;;;;;5.36;64.07;99610.50;7738940;32;40580;-87